Time;durP1;ratioP1;P1;durP2;ratioP2;P2;SDS_P1;SDS_P2;PMS_P1;PMS_P2;Temp;Humidity;BMP_temperature;BMP_pressure;BME280_temperature;BME280_humidity;BME280_pressure;Samples;Min_cycle;Max_cycle;Signal;HPM_P1;HPM_P2
2023/03/08 00:00:19;;;;;;;6.43;4.90;;;;;;;5.73;51.53;97352.28;4975131;28;103465;-56
2023/03/08 00:02:49;;;;;;;7.10;4.70;;;;;;;5.70;51.52;97363.00;4969725;28;103300;-57
2023/03/08 00:05:18;;;;;;;5.23;4.40;;;;;;;6.07;51.08;97373.41;4975255;28;102994;-57
2023/03/08 00:07:46;;;;;;;5.53;4.40;;;;;;;5.67;51.69;97362.41;4977070;28;102624;-57
2023/03/08 00:10:14;;;;;;;8.10;4.93;;;;;;;5.65;51.66;97359.88;4974279;28;103039;-56
2023/03/08 00:12:42;;;;;;;5.57;4.67;;;;;;;5.53;52.22;97365.19;4972353;28;104137;-57
2023/03/08 00:15:11;;;;;;;7.67;5.10;;;;;;;5.51;52.58;97372.31;4974104;28;103266;-57
2023/03/08 00:17:40;;;;;;;5.83;4.30;;;;;;;5.56;52.08;97364.94;4971971;28;102754;-57
2023/03/08 00:20:12;;;;;;;5.87;4.47;;;;;;;5.67;52.17;97362.41;4975499;28;102576;-56
2023/03/08 00:22:42;;;;;;;7.27;5.30;;;;;;;5.64;52.02;97357.38;4976095;28;104104;-57
2023/03/08 00:25:15;;;;;;;9.17;4.83;;;;;;;5.57;52.11;97362.22;4976213;28;103246;-56
2023/03/08 00:27:43;;;;;;;6.43;5.33;;;;;;;5.53;52.21;97373.88;4977327;28;102650;-57
2023/03/08 00:30:12;;;;;;;9.43;5.60;;;;;;;5.56;52.32;97364.94;4975667;28;102800;-57
2023/03/08 00:32:40;;;;;;;8.10;5.00;;;;;;;5.52;52.32;97374.84;4972463;28;104292;-57
2023/03/08 00:35:10;;;;;;;5.93;5.07;;;;;;;5.56;52.35;97376.25;4972910;28;103428;-57
2023/03/08 00:37:38;;;;;;;7.07;5.53;;;;;;;5.57;52.36;97382.34;4975450;28;103021;-57
2023/03/08 00:40:08;;;;;;;7.20;4.93;;;;;;;5.61;52.33;97386.44;4976204;28;102775;-57
2023/03/08 00:42:37;;;;;;;7.40;5.03;;;;;;;5.55;52.51;97399.97;4970370;28;103158;-56
2023/03/08 00:45:06;;;;;;;8.00;5.47;;;;;;;5.50;52.91;97395.03;4976505;28;103069;-57
2023/03/08 00:47:37;;;;;;;6.97;5.50;;;;;;;5.49;52.63;97389.94;4978049;28;102978;-57
2023/03/08 00:50:07;;;;;;;7.70;6.00;;;;;;;5.28;53.32;97383.63;4976904;28;102730;-56
2023/03/08 00:52:37;;;;;;;7.17;5.60;;;;;;;5.43;53.36;97378.13;4971227;28;103427;-56
2023/03/08 00:55:06;;;;;;;7.03;5.27;;;;;;;5.43;52.99;97369.41;4976566;28;103190;-57
2023/03/08 00:57:34;;;;;;;8.03;5.40;;;;;;;5.25;53.47;97361.94;4977928;28;104102;-58
2023/03/08 01:00:07;;;;;;;8.33;5.37;;;;;;;5.44;53.31;97340.50;4977010;28;102714;-58
2023/03/08 01:02:35;;;;;;;7.37;6.03;;;;;;;5.31;53.61;97344.09;4971760;28;103241;-57
2023/03/08 01:05:05;;;;;;;9.53;6.40;;;;;;;5.33;53.68;97337.00;4971762;28;103275;-58
2023/03/08 01:07:33;;;;;;;7.23;5.43;;;;;;;5.33;53.75;97342.22;4975161;28;102798;-58
2023/03/08 01:10:05;;;;;;;9.40;7.53;;;;;;;5.17;53.86;97340.72;4976024;28;104876;-57
2023/03/08 01:12:34;;;;;;;9.37;6.30;;;;;;;5.16;54.32;97335.59;4969704;28;104126;-58
2023/03/08 01:15:05;;;;;;;6.97;6.17;;;;;;;4.96;54.32;97323.09;4973187;28;103037;-57
2023/03/08 01:17:33;;;;;;;10.63;6.03;;;;;;;5.10;54.78;97331.63;4961491;28;102688;-57
2023/03/08 01:20:06;;;;;;;9.57;6.50;;;;;;;5.07;54.85;97331.84;4972208;28;104117;-58
2023/03/08 01:22:34;;;;;;;8.80;6.77;;;;;;;4.96;54.50;97329.16;4938913;28;104096;-57
2023/03/08 01:25:05;;;;;;;8.27;6.73;;;;;;;4.99;54.90;97326.34;4965930;28;104526;-57
2023/03/08 01:27:33;;;;;;;7.93;6.60;;;;;;;4.98;55.20;97313.34;4999348;28;102775;-57
2023/03/08 01:30:01;;;;;;;9.03;7.13;;;;;;;4.84;55.63;97314.31;4996186;28;102983;-57
2023/03/08 01:32:29;;;;;;;10.70;7.00;;;;;;;4.86;55.53;97304.56;4994429;28;104180;-57
2023/03/08 01:35:03;;;;;;;9.60;6.80;;;;;;;4.88;55.37;97301.88;5006159;27;103415;-57
2023/03/08 01:37:31;;;;;;;9.30;6.67;;;;;;;4.84;55.36;97298.63;4996204;28;102961;-57
2023/03/08 01:39:59;;;;;;;10.03;7.67;;;;;;;4.83;55.79;97296.13;4994933;28;103945;-58
2023/03/08 01:42:30;;;;;;;9.80;6.70;;;;;;;4.70;56.33;97296.16;4995415;28;103929;-57
2023/03/08 01:45:01;;;;;;;9.70;7.13;;;;;;;4.79;56.07;97290.28;4989929;28;103276;-57
2023/03/08 01:47:34;;;;;;;10.60;7.50;;;;;;;4.81;56.25;97293.59;4994219;28;102711;-57
2023/03/08 01:50:29;;;;;;;10.43;7.77;;;;;;;4.61;56.78;97283.72;4994599;28;103908;-57
2023/03/08 01:52:58;;;;;;;10.83;7.70;;;;;;;4.66;56.74;97289.44;5007448;27;104351;-57
2023/03/08 01:55:27;;;;;;;8.97;7.27;;;;;;;4.63;57.26;97284.47;4985756;28;103895;-58
2023/03/08 01:57:57;;;;;;;11.07;7.57;;;;;;;4.59;57.17;97283.84;4990606;28;103154;-57
2023/03/08 02:00:26;;;;;;;10.53;7.73;;;;;;;4.56;57.55;97283.22;4997280;28;104163;-57
2023/03/08 02:02:59;;;;;;;10.73;7.33;;;;;;;4.73;56.65;97285.47;4992393;28;102965;-57
2023/03/08 02:05:29;;;;;;;10.27;7.73;;;;;;;4.60;57.50;97282.88;4989575;28;102959;-57
2023/03/08 02:08:05;;;;;;;10.53;7.43;;;;;;;4.42;57.97;97285.94;4990601;28;103075;-57
2023/03/08 02:10:38;;;;;;;10.53;7.63;;;;;;;4.58;57.36;97276.09;4994152;28;103106;-57
2023/03/08 02:13:10;;;;;;;10.43;6.90;;;;;;;4.64;57.61;97275.66;4993488;28;104168;-57
2023/03/08 02:15:41;;;;;;;11.70;7.20;;;;;;;4.60;57.15;97282.06;4990325;28;103182;-57
2023/03/08 02:18:10;;;;;;;15.03;8.27;;;;;;;4.56;57.75;97273.59;4992967;28;102773;-57
2023/03/08 02:20:40;;;;;;;11.80;8.03;;;;;;;4.66;57.24;97273.75;4995461;28;102755;-57
2023/03/08 02:23:12;;;;;;;10.37;7.73;;;;;;;4.70;57.31;97272.59;4993550;28;104272;-57
2023/03/08 02:25:42;;;;;;;11.43;7.77;;;;;;;4.66;57.16;97273.75;4991861;28;102968;-57
2023/03/08 02:28:10;;;;;;;10.43;7.53;;;;;;;4.60;57.35;97263.75;4994216;28;102570;-58
2023/03/08 02:30:38;;;;;;;10.30;7.43;;;;;;;4.63;57.54;97255.69;4991532;28;102998;-58
2023/03/08 02:33:06;;;;;;;9.37;6.70;;;;;;;4.77;57.01;97247.69;4992854;28;104739;-57
2023/03/08 02:35:37;;;;;;;9.87;7.40;;;;;;;4.77;57.11;97252.94;4993095;28;103440;-57
2023/03/08 02:38:05;;;;;;;10.20;7.47;;;;;;;4.57;57.33;97243.03;4994390;28;102556;-57
2023/03/08 02:40:34;;;;;;;7.67;5.80;;;;;;;4.78;57.24;97251.97;4989678;28;103781;-57
2023/03/08 02:43:02;;;;;;;13.70;6.53;;;;;;;4.90;57.01;97242.41;4993865;28;104884;-57
2023/03/08 02:45:32;;;;;;;9.13;6.90;;;;;;;4.89;57.03;97238.94;4983353;28;103404;-57
2023/03/08 02:48:01;;;;;;;10.53;7.37;;;;;;;4.74;57.27;97234.84;4991470;28;102870;-57
2023/03/08 02:50:30;;;;;;;9.20;7.07;;;;;;;4.79;56.86;97240.56;4989371;28;104154;-57
2023/03/08 02:52:58;;;;;;;9.43;7.43;;;;;;;4.77;56.64;97229.38;4988650;28;104182;-57
2023/03/08 02:55:29;;;;;;;8.10;6.67;;;;;;;4.80;57.01;97223.09;5006153;27;103518;-58
2023/03/08 02:57:58;;;;;;;11.43;6.83;;;;;;;4.82;57.12;97227.25;4993768;28;103216;-58
2023/03/08 03:00:26;;;;;;;10.93;7.00;;;;;;;4.71;57.18;97221.13;4991580;28;104228;-58
2023/03/08 03:02:55;;;;;;;10.90;7.47;;;;;;;4.64;57.63;97221.56;5006794;27;105841;-58
2023/03/08 03:05:23;;;;;;;11.40;6.90;;;;;;;4.66;57.25;97231.91;4990260;28;103395;-58
2023/03/08 03:07:54;;;;;;;12.53;7.60;;;;;;;4.77;56.73;97218.91;4998031;28;103604;-58
2023/03/08 03:10:22;;;;;;;11.00;6.97;;;;;;;4.79;57.35;97210.94;4994293;28;102985;-57
2023/03/08 03:12:53;;;;;;;9.60;6.80;;;;;;;4.85;57.20;97200.03;4993368;28;103205;-58
2023/03/08 03:15:26;;;;;;;10.33;7.07;;;;;;;4.72;57.30;97194.84;4983887;28;103781;-57
2023/03/08 03:17:58;;;;;;;8.87;6.87;;;;;;;4.85;56.97;97182.56;4996093;28;102761;-57
2023/03/08 03:20:26;;;;;;;11.03;6.80;;;;;;;4.93;56.69;97172.34;4990973;28;102632;-58
2023/03/08 03:22:54;;;;;;;9.13;6.37;;;;;;;4.98;56.89;97162.38;4986248;28;103190;-58
2023/03/08 03:25:28;;;;;;;8.07;6.30;;;;;;;5.00;56.63;97163.09;4985414;28;103145;-57
2023/03/08 03:27:56;;;;;;;11.97;6.77;;;;;;;5.01;56.96;97156.91;4991964;28;103710;-58
2023/03/08 03:30:29;;;;;;;12.10;7.07;;;;;;;4.90;56.72;97156.88;4987796;28;103075;-57
2023/03/08 03:32:58;;;;;;;11.00;7.33;;;;;;;4.97;56.75;97158.09;4988449;28;103305;-57
2023/03/08 03:35:31;;;;;;;9.60;6.57;;;;;;;4.96;56.41;97148.59;4991051;28;105320;-57
2023/03/08 03:37:59;;;;;;;11.13;6.60;;;;;;;4.83;57.06;97157.47;4990085;28;102653;-57
2023/03/08 03:40:28;;;;;;;9.27;6.90;;;;;;;5.33;55.36;97154.53;4993492;28;102969;-57
2023/03/08 03:43:00;;;;;;;8.23;6.20;;;;;;;4.92;56.24;97143.66;4989915;28;103275;-57
2023/03/08 03:45:30;;;;;;;7.90;6.30;;;;;;;4.98;56.68;97146.69;4989410;28;103984;-57
2023/03/08 03:47:59;;;;;;;9.53;7.30;;;;;;;4.86;57.11;97149.34;4983745;28;102783;-57
2023/03/08 03:50:28;;;;;;;9.00;5.33;;;;;;;5.03;56.68;97131.47;4991465;28;102900;-57
2023/03/08 03:53:04;;;;;;;9.20;5.77;;;;;;;5.00;56.72;97130.84;4991799;28;104920;-57
2023/03/08 03:55:32;;;;;;;11.57;7.20;;;;;;;4.55;57.51;97140.28;4990417;28;103352;-57
2023/03/08 03:58:03;;;;;;;10.97;6.73;;;;;;;4.55;57.83;97135.91;4985971;28;102810;-57
2023/03/08 04:00:34;;;;;;;11.03;7.03;;;;;;;4.58;57.86;97137.47;4994192;28;102842;-57
2023/03/08 04:03:16;;;;;;;10.07;7.27;;;;;;;4.68;58.00;97141.09;4994259;28;103966;-58
2023/03/08 04:05:44;;;;;;;9.57;7.07;;;;;;;4.60;57.69;97140.81;4990633;28;103299;-57
2023/03/08 04:08:12;;;;;;;11.53;7.83;;;;;;;4.27;59.29;97145.84;4988499;28;102806;-58
2023/03/08 04:10:42;;;;;;;10.73;6.73;;;;;;;4.15;59.70;97138.88;4993335;28;104137;-58
2023/03/08 04:13:11;;;;;;;11.93;6.70;;;;;;;4.13;60.02;97135.56;5006817;27;105043;-58
2023/03/08 04:15:41;;;;;;;10.17;7.20;;;;;;;4.43;59.16;97128.13;4991045;28;105785;-57
2023/03/08 04:18:12;;;;;;;8.43;6.50;;;;;;;4.53;59.40;97116.03;4991827;28;102768;-57
2023/03/08 04:20:44;;;;;;;7.30;5.70;;;;;;;4.61;58.14;97113.69;4994388;28;102811;-57
2023/03/08 04:23:12;;;;;;;9.77;6.30;;;;;;;4.67;57.94;97106.25;4994626;28;103964;-58
2023/03/08 04:25:42;;;;;;;7.40;5.77;;;;;;;4.61;58.28;97114.53;4989372;28;103245;-58
2023/03/08 04:28:12;;;;;;;9.43;6.83;;;;;;;4.62;59.06;97103.13;4992534;28;102748;-58
2023/03/08 04:30:42;;;;;;;8.07;6.10;;;;;;;4.59;58.34;97115.59;4990135;28;102795;-57
2023/03/08 04:33:13;;;;;;;8.33;6.13;;;;;;;4.61;59.14;97114.53;4990662;28;103030;-58
2023/03/08 04:35:47;;;;;;;11.03;6.73;;;;;;;4.74;57.64;97118.88;4983620;28;103076;-57
2023/03/08 04:38:19;;;;;;;9.03;6.97;;;;;;;4.61;58.19;97116.31;4987695;28;103055;-58
2023/03/08 04:43:46;;;;;;;9.23;6.23;;;;;;;4.73;58.15;97107.56;4992548;28;104598;-57
2023/03/08 04:46:18;;;;;;;11.00;6.80;;;;;;;4.71;58.42;97092.94;4993665;28;105619;-57
2023/03/08 04:48:47;;;;;;;11.77;6.27;;;;;;;4.81;57.97;97084.28;4992588;28;102784;-58
2023/03/08 04:51:16;;;;;;;7.20;6.10;;;;;;;4.83;57.67;97082.38;4988996;28;102825;-57
2023/03/08 04:53:46;;;;;;;10.33;7.23;;;;;;;4.90;57.18;97074.91;4987803;28;103310;-58
2023/03/08 04:56:16;;;;;;;9.80;6.37;;;;;;;4.82;57.35;97075.50;4986875;28;103201;-58
2023/03/08 04:58:46;;;;;;;11.37;7.33;;;;;;;4.64;57.43;97062.00;4986337;28;102836;-58
2023/03/08 05:01:21;;;;;;;9.33;7.10;;;;;;;4.62;57.80;97047.38;4985992;28;102712;-58
2023/03/08 05:03:49;;;;;;;9.40;7.10;;;;;;;4.63;58.12;97054.28;4985128;28;104653;-58
2023/03/08 05:06:23;;;;;;;8.93;7.30;;;;;;;4.64;58.16;97050.69;5002468;27;103359;-58
2023/03/08 05:08:56;;;;;;;9.67;7.00;;;;;;;4.60;58.76;97055.31;4992485;28;103378;-58
2023/03/08 05:11:27;;;;;;;9.63;7.00;;;;;;;4.51;59.04;97049.94;4983454;28;103956;-58
2023/03/08 05:13:57;;;;;;;7.87;6.83;;;;;;;4.54;58.58;97049.72;4990996;28;105144;-58
2023/03/08 05:16:30;;;;;;;10.00;7.23;;;;;;;4.67;57.79;97045.25;4992363;28;103193;-57
2023/03/08 05:18:58;;;;;;;9.30;7.00;;;;;;;4.60;58.17;97033.59;4989512;28;102763;-57
2023/03/08 05:21:31;;;;;;;9.03;6.30;;;;;;;4.74;58.09;97049.09;4984067;28;104073;-58
2023/03/08 05:24:01;;;;;;;8.97;7.13;;;;;;;4.69;58.30;97051.19;4986138;28;103317;-58
2023/03/08 05:26:33;;;;;;;10.30;7.30;;;;;;;4.65;58.06;97055.00;4982381;28;103477;-58
2023/03/08 05:29:05;;;;;;;11.60;8.00;;;;;;;4.80;57.73;97045.97;4992860;28;102739;-56
2023/03/08 05:31:36;;;;;;;12.17;7.27;;;;;;;4.68;58.02;97047.75;5009640;28;102677;-56
2023/03/08 05:34:10;;;;;;;10.73;7.30;;;;;;;4.84;57.57;97036.97;4996620;28;103311;-56
2023/03/08 05:36:42;;;;;;;13.20;8.07;;;;;;;4.78;58.25;97032.19;4992281;28;103204;-56
2023/03/08 05:39:11;;;;;;;12.20;6.97;;;;;;;4.88;58.24;97027.13;4988754;28;102920;-56
2023/03/08 05:41:58;;;;;;;10.47;7.43;;;;;;;4.89;57.99;97026.97;5007903;27;102727;-57
2023/03/08 05:44:32;;;;;;;9.97;7.33;;;;;;;4.83;57.86;97018.78;4993562;28;103203;-56
2023/03/08 05:47:01;;;;;;;11.70;7.97;;;;;;;4.87;57.75;97018.41;4993913;28;103384;-57
2023/03/08 05:49:30;;;;;;;10.40;7.80;;;;;;;4.89;58.00;97007.81;4982188;28;102712;-57
2023/03/08 05:51:58;;;;;;;10.13;7.40;;;;;;;5.00;57.66;97013.91;4995598;28;102681;-57
2023/03/08 05:54:28;;;;;;;11.63;8.57;;;;;;;5.05;57.82;97013.59;4991617;28;103260;-57
2023/03/08 05:57:02;;;;;;;9.77;7.50;;;;;;;5.08;57.83;97014.16;4988562;28;103309;-57
2023/03/08 05:59:31;;;;;;;13.37;7.23;;;;;;;5.11;57.47;97013.94;4983845;28;102781;-57
2023/03/08 06:02:04;;;;;;;10.67;7.77;;;;;;;5.13;57.86;97017.28;4989947;28;102669;-57
2023/03/08 06:04:37;;;;;;;11.77;8.20;;;;;;;5.11;58.04;97024.41;4991011;28;104980;-57
2023/03/08 06:07:05;;;;;;;12.43;8.07;;;;;;;5.12;57.52;97015.59;4996566;28;103352;-57
2023/03/08 06:09:38;;;;;;;15.57;8.23;;;;;;;5.02;58.39;97013.81;4995437;28;102652;-61
2023/03/08 06:12:11;;;;;;;10.97;7.93;;;;;;;5.10;57.83;97024.53;4991715;28;102781;-61
2023/03/08 06:14:39;;;;;;;10.63;7.30;;;;;;;5.13;58.13;97021.69;4981483;28;104063;-61
2023/03/08 06:17:09;;;;;;;10.07;7.97;;;;;;;4.96;58.19;97009.03;4994208;28;103171;-61
2023/03/08 06:19:41;;;;;;;12.03;8.33;;;;;;;5.05;58.20;97009.16;4985215;28;102723;-61
2023/03/08 06:22:11;;;;;;;9.90;6.87;;;;;;;5.12;58.20;97015.59;4984811;28;102871;-60
2023/03/08 06:24:40;;;;;;;11.90;7.43;;;;;;;5.09;58.44;97010.59;4994147;28;105529;-61
2023/03/08 06:27:09;;;;;;;12.23;7.77;;;;;;;5.18;57.94;97004.66;4992379;28;106984;-60
2023/03/08 06:29:42;;;;;;;11.90;8.97;;;;;;;5.12;58.74;96994.66;4989693;28;102614;-60
2023/03/08 06:32:11;;;;;;;11.80;8.03;;;;;;;5.21;58.64;96999.19;4991337;28;102661;-61
2023/03/08 06:34:40;;;;;;;10.73;8.20;;;;;;;5.19;58.46;96990.59;4994430;28;105862;-61
2023/03/08 06:37:08;;;;;;;11.27;8.60;;;;;;;5.33;58.03;96991.34;4995097;28;103205;-61
2023/03/08 06:39:37;;;;;;;12.17;8.00;;;;;;;5.42;58.18;96985.38;4997737;28;102721;-61
2023/03/08 06:42:06;;;;;;;13.97;8.43;;;;;;;5.40;58.29;96976.78;4995881;28;102715;-61
2023/03/08 06:44:35;;;;;;;12.67;8.00;;;;;;;5.42;58.29;96967.88;4998977;28;103502;-61
2023/03/08 06:47:06;;;;;;;13.43;8.73;;;;;;;5.44;58.22;96967.75;4996695;28;102612;-60
2023/03/08 06:49:36;;;;;;;10.73;8.07;;;;;;;5.37;58.42;96962.16;5001066;28;103360;-60
2023/03/08 06:52:05;;;;;;;12.07;9.20;;;;;;;5.37;58.88;96959.53;4997229;28;104826;-61
2023/03/08 06:54:33;;;;;;;13.40;9.20;;;;;;;5.55;58.47;96960.72;4998697;28;104232;-61
2023/03/08 06:57:04;;;;;;;11.33;8.60;;;;;;;5.46;59.45;96960.59;4990383;28;105206;-61
2023/03/08 06:59:33;;;;;;;12.10;9.73;;;;;;;5.60;58.21;96957.72;5001225;28;102708;-61
2023/03/08 07:02:01;;;;;;;11.13;8.80;;;;;;;5.72;58.49;96962.00;4999186;28;103186;-61
2023/03/08 07:04:29;;;;;;;14.30;8.70;;;;;;;5.58;58.79;96952.63;4995165;28;102959;-61
2023/03/08 07:06:58;;;;;;;13.87;9.27;;;;;;;5.70;58.70;96956.03;4999886;28;103221;-61
2023/03/08 07:09:26;;;;;;;12.47;8.63;;;;;;;5.77;57.94;96951.97;4997180;28;102626;-60
2023/03/08 07:11:54;;;;;;;16.30;9.93;;;;;;;5.74;58.24;96936.50;4998665;28;102768;-61
2023/03/08 07:14:22;;;;;;;12.17;8.80;;;;;;;5.75;57.92;96936.34;4996492;28;103282;-61
2023/03/08 07:16:50;;;;;;;12.43;8.70;;;;;;;5.64;58.63;96931.16;4999479;28;103177;-61
2023/03/08 07:19:18;;;;;;;15.00;8.83;;;;;;;5.75;57.67;96925.06;4996645;28;103751;-61
2023/03/08 07:21:45;;;;;;;17.13;8.93;;;;;;;5.77;58.06;96917.91;5000064;28;104123;-61
2023/03/08 07:24:15;;;;;;;11.00;8.30;;;;;;;5.94;57.06;96924.44;5001339;28;102997;-61
2023/03/08 07:26:43;;;;;;;12.57;8.60;;;;;;;5.91;57.80;96925.50;4998511;28;103172;-61
2023/03/08 07:29:10;;;;;;;11.13;8.23;;;;;;;6.01;57.22;96921.19;4998820;28;102661;-61
2023/03/08 07:31:38;;;;;;;11.00;8.57;;;;;;;6.02;57.51;96919.38;4999210;28;102593;-61
2023/03/08 07:34:07;;;;;;;11.37;7.80;;;;;;;6.02;57.05;96907.13;4993879;28;103319;-61
2023/03/08 07:36:35;;;;;;;13.87;7.90;;;;;;;5.99;57.57;96910.00;4996755;28;103196;-61
2023/03/08 07:39:03;;;;;;;13.43;9.60;;;;;;;5.78;59.25;96899.44;4994822;28;102599;-61
2023/03/08 07:41:33;;;;;;;10.80;8.77;;;;;;;5.87;59.39;96897.06;5000716;28;103849;-61
2023/03/08 07:44:02;;;;;;;13.27;8.93;;;;;;;5.89;59.43;96901.22;4996545;28;104157;-61
2023/03/08 07:46:30;;;;;;;12.90;9.70;;;;;;;5.98;59.21;96889.97;4992584;28;103942;-61
2023/03/08 07:48:58;;;;;;;10.33;8.20;;;;;;;6.11;58.97;96879.31;4999812;28;102604;-61
2023/03/08 07:51:26;;;;;;;15.00;9.73;;;;;;;6.00;59.19;96882.00;5000006;28;102763;-61
2023/03/08 07:53:54;;;;;;;15.00;9.73;;;;;;;6.00;59.58;96888.06;4998501;28;104042;-61
2023/03/08 07:56:22;;;;;;;10.73;8.70;;;;;;;6.10;58.93;96873.25;4994679;28;103247;-61
2023/03/08 07:58:51;;;;;;;12.30;8.43;;;;;;;6.08;59.54;96874.31;4997937;28;102604;-61
2023/03/08 08:01:19;;;;;;;12.63;9.30;;;;;;;6.03;59.81;96866.84;4999266;28;102587;-61
2023/03/08 08:03:47;;;;;;;9.87;7.47;;;;;;;6.09;58.79;96871.56;4997112;28;103942;-61
2023/03/08 08:06:16;;;;;;;11.87;8.27;;;;;;;6.13;58.07;96846.78;4994033;28;103270;-61
2023/03/08 08:08:44;;;;;;;13.90;9.83;;;;;;;6.28;58.03;96840.25;4997916;28;102894;-61
2023/03/08 08:11:13;;;;;;;12.93;8.77;;;;;;;6.38;57.60;96846.38;4998449;28;102710;-61
2023/03/08 08:13:41;;;;;;;13.60;8.67;;;;;;;6.39;57.69;96842.81;4999052;28;102992;-61
2023/03/08 08:16:10;;;;;;;11.53;7.93;;;;;;;6.51;57.27;96824.34;4995758;28;103239;-61
2023/03/08 08:18:39;;;;;;;13.40;8.90;;;;;;;6.38;58.00;96825.38;4997373;28;102580;-61
2023/03/08 08:21:09;;;;;;;10.37;7.40;;;;;;;6.36;58.21;96819.44;4998156;28;104092;-61
2023/03/08 08:23:38;;;;;;;10.30;8.50;;;;;;;6.45;57.59;96815.22;4995960;28;103373;-61
2023/03/08 08:26:08;;;;;;;10.80;8.53;;;;;;;6.52;57.74;96811.09;4993536;28;103172;-61
2023/03/08 08:28:37;;;;;;;13.00;9.23;;;;;;;6.45;58.85;96798.66;4996668;28;104422;-61
2023/03/08 08:31:08;;;;;;;14.07;9.53;;;;;;;6.38;58.35;96787.84;4998175;28;103364;-61
2023/03/08 08:33:37;;;;;;;14.43;9.23;;;;;;;6.39;58.90;96769.38;4994542;28;103959;-61
2023/03/08 08:36:08;;;;;;;12.20;8.40;;;;;;;6.31;58.94;96763.13;4994463;28;103857;-61
2023/03/08 08:38:36;;;;;;;12.47;7.97;;;;;;;6.43;61.84;96764.66;4995929;28;102590;-61
2023/03/08 08:41:06;;;;;;;12.50;9.13;;;;;;;6.43;62.05;96757.63;4998867;28;102786;-61
2023/03/08 08:43:35;;;;;;;14.30;9.63;;;;;;;6.40;66.87;96750.03;4996140;28;103242;-61
2023/03/08 08:46:05;;;;;;;14.10;9.40;;;;;;;6.28;66.13;96753.72;4991628;28;103038;-61
2023/03/08 08:48:33;;;;;;;11.73;8.77;;;;;;;6.39;66.20;96752.78;4994500;28;102665;-61
2023/03/08 08:51:03;;;;;;;12.67;8.80;;;;;;;6.27;67.64;96749.44;4999007;28;102949;-61
2023/03/08 08:53:31;;;;;;;11.83;8.50;;;;;;;6.15;69.46;96750.47;4998926;28;103275;-61
2023/03/08 08:55:59;;;;;;;13.87;8.33;;;;;;;6.08;69.85;96743.25;4990210;28;103162;-61
2023/03/08 08:58:27;;;;;;;12.63;8.27;;;;;;;6.19;70.18;96730.06;4995065;28;102703;-61
2023/03/08 09:00:55;;;;;;;11.93;7.73;;;;;;;6.10;69.01;96743.94;4999050;28;102899;-61
2023/03/08 09:03:23;;;;;;;16.03;8.93;;;;;;;6.29;69.28;96730.91;4997343;28;104101;-61
2023/03/08 09:05:50;;;;;;;13.77;9.00;;;;;;;6.46;68.37;96724.25;4996281;28;103232;-61
2023/03/08 09:08:20;;;;;;;10.33;7.03;;;;;;;6.57;68.50;96742.50;4997111;28;102619;-61
2023/03/08 09:10:48;;;;;;;13.60;8.20;;;;;;;6.49;68.90;96724.78;4995866;28;103784;-61
2023/03/08 09:13:16;;;;;;;11.63;8.17;;;;;;;6.54;69.18;96708.69;4996884;28;103029;-61
2023/03/08 09:15:44;;;;;;;12.67;8.93;;;;;;;6.31;70.70;96724.59;4996290;28;103138;-61
2023/03/08 09:18:12;;;;;;;11.87;8.33;;;;;;;6.36;68.91;96738.16;4998716;28;102576;-61
2023/03/08 09:20:39;;;;;;;10.77;8.10;;;;;;;6.54;70.51;96714.72;4996468;28;103924;-61
2023/03/08 09:23:08;;;;;;;12.13;9.10;;;;;;;6.65;69.64;96719.06;4994278;28;103206;-61
2023/03/08 09:25:38;;;;;;;11.20;7.70;;;;;;;6.80;69.67;96699.31;4996370;28;103202;-61
2023/03/08 09:28:06;;;;;;;14.23;9.47;;;;;;;6.76;70.72;96706.66;4996022;28;102576;-61
2023/03/08 09:30:34;;;;;;;13.13;9.03;;;;;;;6.62;70.57;96707.03;4997559;28;103971;-61
2023/03/08 09:33:02;;;;;;;13.97;8.70;;;;;;;6.54;70.94;96685.06;4998250;28;103851;-61
2023/03/08 09:35:30;;;;;;;13.20;9.20;;;;;;;6.58;70.02;96692.50;4992111;28;103467;-61
2023/03/08 09:38:00;;;;;;;11.20;9.57;;;;;;;6.88;69.22;96678.47;4995641;28;103137;-61
2023/03/08 09:40:30;;;;;;;12.90;9.33;;;;;;;6.85;69.27;96691.88;4998594;28;102564;-61
2023/03/08 09:43:05;;;;;;;15.57;9.20;;;;;;;6.75;69.40;96659.53;4994354;28;103345;-61
2023/03/08 09:45:33;;;;;;;12.27;9.13;;;;;;;6.68;69.63;96648.75;4993329;28;103015;-61
2023/03/08 09:48:09;;;;;;;14.17;10.07;;;;;;;6.75;69.20;96662.16;4994017;28;102852;-61
2023/03/08 09:50:44;;;;;;;14.50;10.37;;;;;;;6.61;68.48;96654.69;4998588;28;102694;-61
2023/03/08 09:53:23;;;;;;;14.93;9.33;;;;;;;6.71;68.53;96647.69;4995521;28;103798;-61
2023/03/08 09:55:56;;;;;;;12.20;9.10;;;;;;;6.83;68.29;96651.81;4995174;28;103202;-61
2023/03/08 09:58:34;;;;;;;10.67;8.23;;;;;;;6.85;68.00;96655.94;4993556;28;102604;-61
2023/03/08 10:01:21;;;;;;;19.07;10.27;;;;;;;6.72;67.75;96638.81;4995402;28;102999;-62
2023/03/08 10:04:19;;;;;;;11.87;9.37;;;;;;;6.99;67.49;96638.97;4992469;28;103268;-61
2023/03/08 10:07:16;;;;;;;12.00;8.17;;;;;;;7.13;66.97;96641.16;4996497;28;103447;-62
2023/03/08 10:09:48;;;;;;;15.43;9.00;;;;;;;7.18;67.50;96631.09;5003719;28;102591;-61
2023/03/08 10:12:23;;;;;;;14.70;10.03;;;;;;;6.98;66.68;96619.78;5004384;28;104112;-61
2023/03/08 10:14:56;;;;;;;13.00;10.07;;;;;;;7.04;67.04;96628.06;5001201;28;103206;-61
2023/03/08 10:17:30;;;;;;;15.50;10.40;;;;;;;7.17;66.32;96616.31;5001083;28;103336;-61
2023/03/08 10:20:06;;;;;;;14.67;9.90;;;;;;;7.10;67.17;96609.97;5002250;28;102616;-61
2023/03/08 10:22:41;;;;;;;18.20;9.17;;;;;;;7.10;66.79;96612.59;5005477;28;103215;-61
2023/03/08 10:25:22;;;;;;;13.03;8.50;;;;;;;7.28;66.96;96612.69;5000443;28;103202;-62
2023/03/08 10:27:54;;;;;;;12.60;8.23;;;;;;;7.39;66.37;96608.13;5002618;28;103172;-61
2023/03/08 10:30:28;;;;;;;13.67;8.53;;;;;;;7.42;66.66;96607.00;4999545;28;102761;-62
2023/03/08 10:32:59;;;;;;;11.53;8.60;;;;;;;7.46;66.55;96603.13;5004184;28;102701;-62
2023/03/08 10:35:33;;;;;;;10.13;8.27;;;;;;;7.45;66.65;96602.28;4999284;28;103236;-61
2023/03/08 10:38:01;;;;;;;12.73;9.00;;;;;;;7.55;68.01;96597.03;5001140;28;103400;-62
2023/03/08 10:40:29;;;;;;;12.77;8.70;;;;;;;7.83;67.68;96590.81;5002468;28;102944;-61
2023/03/08 10:43:04;;;;;;;8.53;5.97;;;;;;;8.03;70.49;96589.78;5005116;28;102905;-61
2023/03/08 10:45:36;;;;;;;9.47;6.47;;;;;;;8.33;70.72;96582.59;5001848;28;103236;-61
2023/03/08 10:48:05;;;;;;;7.33;4.17;;;;;;;8.50;73.25;96587.91;4999474;28;103191;-61
2023/03/08 10:50:36;;;;;;;6.97;4.30;;;;;;;8.74;73.31;96574.13;5004266;28;102643;-61
2023/03/08 10:53:10;;;;;;;5.17;3.90;;;;;;;8.90;74.03;96555.84;5002240;28;102810;-61
2023/03/08 10:55:44;;;;;;;4.70;3.80;;;;;;;9.23;73.10;96554.31;5001556;28;103246;-62
2023/03/08 10:58:30;;;;;;;3.97;3.37;;;;;;;9.40;73.37;96550.81;4994575;28;103321;-62
2023/03/08 11:01:05;;;;;;;6.30;3.20;;;;;;;9.28;73.85;96544.13;5004327;28;102586;-62
2023/03/08 11:03:33;;;;;;;4.50;3.20;;;;;;;9.51;73.06;96555.81;5000640;28;103014;-62
2023/03/08 11:06:04;;;;;;;4.37;3.43;;;;;;;9.62;72.95;96552.91;4998439;28;104159;-62
2023/03/08 11:08:35;;;;;;;5.83;3.17;;;;;;;9.63;72.91;96554.53;5001126;28;104056;-62
2023/03/08 11:11:07;;;;;;;4.80;3.63;;;;;;;9.63;73.19;96554.53;4996278;28;102766;-62
2023/03/08 11:13:37;;;;;;;2.90;2.50;;;;;;;9.80;72.90;96547.53;5003904;28;102629;-62
2023/03/08 11:16:37;;;;;;;3.93;2.60;;;;;;;9.90;73.43;96530.63;4995737;28;103252;-61
2023/03/08 11:19:21;;;;;;;2.90;2.20;;;;;;;10.06;72.49;96544.84;4994738;28;103181;-62
2023/03/08 11:21:58;;;;;;;4.33;2.37;;;;;;;10.07;72.68;96534.16;4992911;28;103130;-62
2023/03/08 11:24:40;;;;;;;2.23;1.60;;;;;;;10.25;72.59;96547.25;4998148;28;103956;-62
2023/03/08 11:27:26;;;;;;;1.67;1.33;;;;;;;10.34;72.62;96533.09;4992100;28;104820;-62
2023/03/08 11:30:07;;;;;;;3.00;1.10;;;;;;;10.47;72.97;96549.28;4994134;28;103362;-61
2023/03/08 11:32:55;;;;;;;1.10;1.00;;;;;;;10.66;72.62;96543.75;5000356;28;102581;-62
2023/03/08 11:35:29;;;;;;;1.67;0.87;;;;;;;10.74;72.15;96541.09;4986343;28;102724;-62
2023/03/08 11:38:05;;;;;;;1.37;0.90;;;;;;;11.00;71.99;96536.47;4999457;28;103473;-61
2023/03/08 11:40:55;;;;;;;1.33;0.83;;;;;;;11.03;71.88;96524.78;4987885;28;104343;-62
2023/03/08 11:43:40;;;;;;;0.90;0.80;;;;;;;11.05;71.98;96520.16;4997461;28;102646;-62
2023/03/08 11:46:15;;;;;;;1.43;0.70;;;;;;;11.19;71.44;96529.22;5007338;27;104285;-62